createdAt,value
2017-07-24T00:00:47.817Z,0
2017-07-24T00:01:48.532Z,0
2017-07-24T00:02:49.340Z,0
2017-07-24T00:03:50.190Z,0
2017-07-24T00:04:50.968Z,0
2017-07-24T00:05:51.986Z,0
2017-07-24T00:06:52.751Z,0
2017-07-24T00:07:53.554Z,0
2017-07-24T00:08:54.283Z,0
2017-07-24T00:09:55.020Z,0
2017-07-24T00:10:55.866Z,0
2017-07-24T00:11:56.659Z,0
2017-07-24T00:12:57.656Z,0
2017-07-24T00:13:58.733Z,0
2017-07-24T00:14:59.672Z,0
2017-07-24T00:16:00.396Z,0
2017-07-24T00:17:01.201Z,0
2017-07-24T00:18:01.922Z,0
2017-07-24T00:19:02.658Z,0
2017-07-24T00:20:03.400Z,0
2017-07-24T00:21:04.201Z,0
2017-07-24T00:22:04.959Z,0
2017-07-24T00:23:05.788Z,0
2017-07-24T00:24:06.618Z,0
2017-07-24T00:25:07.733Z,0
2017-07-24T00:26:08.609Z,0
2017-07-24T00:27:09.417Z,0
2017-07-24T00:28:10.223Z,0
2017-07-24T00:29:11.054Z,0
2017-07-24T00:30:11.911Z,0
2017-07-24T00:31:12.707Z,0
2017-07-24T00:32:13.521Z,0
2017-07-24T00:33:14.205Z,0
2017-07-24T00:34:14.972Z,0
2017-07-24T00:35:15.776Z,0
2017-07-24T00:36:16.566Z,0
2017-07-24T00:37:17.304Z,0
2017-07-24T00:38:18.038Z,0
2017-07-24T00:39:18.764Z,0
2017-07-24T00:40:19.499Z,0
2017-07-24T00:41:20.290Z,0
2017-07-24T00:42:21.167Z,0
2017-07-24T00:43:21.999Z,0
2017-07-24T00:44:22.857Z,0
2017-07-24T00:45:23.841Z,0
2017-07-24T00:46:24.607Z,0
2017-07-24T00:47:25.362Z,0
2017-07-24T00:48:26.113Z,0
2017-07-24T00:49:26.963Z,0
2017-07-24T00:50:27.766Z,0
2017-07-24T00:51:28.566Z,0
2017-07-24T00:52:29.415Z,0
2017-07-24T00:53:30.221Z,0
2017-07-24T00:54:30.975Z,0
2017-07-24T00:55:31.713Z,0
2017-07-24T00:56:32.435Z,0
2017-07-24T00:57:33.235Z,0
2017-07-24T00:58:34.012Z,0
2017-07-24T00:59:35.015Z,0
2017-07-24T01:00:36.059Z,0
2017-07-24T01:01:37.514Z,0
2017-07-24T01:02:38.334Z,0
2017-07-24T01:03:39.140Z,0
2017-07-24T01:04:39.918Z,0
2017-07-24T01:05:40.736Z,0
2017-07-24T01:06:41.644Z,0
2017-07-24T01:07:42.499Z,0
2017-07-24T01:08:43.238Z,0
2017-07-24T01:09:43.985Z,0
2017-07-24T01:10:44.896Z,0
2017-07-24T01:11:45.643Z,0
2017-07-24T01:12:46.439Z,0
2017-07-24T01:13:47.186Z,0
2017-07-24T01:14:47.970Z,0
2017-07-24T01:15:48.858Z,0
2017-07-24T01:16:49.741Z,0
2017-07-24T01:17:50.695Z,0
2017-07-24T01:18:51.508Z,0
2017-07-24T01:19:52.294Z,0
2017-07-24T01:20:53.299Z,0
2017-07-24T01:21:54.052Z,0
2017-07-24T01:22:54.844Z,0
2017-07-24T01:23:55.585Z,0
2017-07-24T01:24:56.366Z,0
2017-07-24T01:25:57.195Z,0
2017-07-24T01:26:57.979Z,0
2017-07-24T01:27:58.756Z,0
2017-07-24T01:28:59.539Z,0
2017-07-24T01:30:00.329Z,0
2017-07-24T01:31:01.439Z,0
2017-07-24T01:32:02.221Z,0
2017-07-24T01:33:02.903Z,0
2017-07-24T01:34:03.655Z,0
2017-07-24T01:35:04.459Z,0
2017-07-24T01:36:05.241Z,0
2017-07-24T01:37:06.082Z,0
2017-07-24T01:38:06.840Z,0
2017-07-24T01:39:07.768Z,0
2017-07-24T01:40:08.683Z,0
2017-07-24T01:41:09.494Z,0
2017-07-24T01:42:10.574Z,0
2017-07-24T01:43:11.424Z,0
2017-07-24T01:44:12.203Z,0
2017-07-24T01:45:12.974Z,0
2017-07-24T01:46:13.857Z,0
2017-07-24T01:47:14.632Z,0
2017-07-24T01:48:15.592Z,0
2017-07-24T01:49:16.490Z,0
2017-07-24T01:50:17.308Z,0
2017-07-24T01:51:18.056Z,0
2017-07-24T01:52:19.144Z,0
2017-07-24T01:53:19.927Z,0
2017-07-24T01:54:20.706Z,0
2017-07-24T01:55:21.414Z,0
2017-07-24T01:56:22.259Z,0
2017-07-24T01:57:23.065Z,0
2017-07-24T01:58:23.839Z,0
2017-07-24T01:59:24.572Z,0
2017-07-24T02:00:25.266Z,0
2017-07-24T02:01:26.314Z,0
2017-07-24T02:02:27.051Z,0
2017-07-24T02:03:27.769Z,0
2017-07-24T02:04:28.629Z,0
2017-07-24T02:05:29.346Z,0
2017-07-24T02:06:30.130Z,0
2017-07-24T02:07:30.921Z,0
2017-07-24T02:08:31.720Z,0
2017-07-24T02:09:32.519Z,0
2017-07-24T02:10:33.298Z,0
2017-07-24T02:11:34.165Z,0
2017-07-24T02:12:34.888Z,0
2017-07-24T02:13:35.644Z,0
2017-07-24T02:14:36.408Z,0
2017-07-24T02:15:37.285Z,0
2017-07-24T02:16:38.073Z,0
2017-07-24T02:17:38.845Z,0
2017-07-24T02:18:39.645Z,0
2017-07-24T02:19:40.418Z,0
2017-07-24T02:20:41.339Z,0
2017-07-24T02:21:42.089Z,0
2017-07-24T02:22:43.080Z,0
2017-07-24T02:23:43.804Z,0
2017-07-24T02:24:44.538Z,0
2017-07-24T02:25:45.348Z,0
2017-07-24T02:26:46.096Z,0
2017-07-24T02:27:46.864Z,0
2017-07-24T02:28:47.639Z,0
2017-07-24T02:29:48.389Z,0
2017-07-24T02:30:49.162Z,0
2017-07-24T02:31:49.895Z,0
2017-07-24T02:32:50.636Z,0
2017-07-24T02:33:51.404Z,0
2017-07-24T02:34:52.415Z,0
2017-07-24T02:35:53.292Z,0
2017-07-24T02:36:54.054Z,0
2017-07-24T02:37:54.775Z,0
2017-07-24T02:38:55.622Z,0
2017-07-24T02:39:56.469Z,0
2017-07-24T02:40:57.169Z,0
2017-07-24T02:41:57.913Z,0
2017-07-24T02:42:58.706Z,0
2017-07-24T02:43:59.503Z,0
2017-07-24T02:45:00.233Z,0
2017-07-24T02:46:01.081Z,0
2017-07-24T02:47:01.788Z,0
2017-07-24T02:48:02.608Z,0
2017-07-24T02:49:03.332Z,0
2017-07-24T02:50:04.488Z,0
2017-07-24T02:51:05.323Z,0
2017-07-24T02:52:06.106Z,0
2017-07-24T02:53:06.829Z,0
2017-07-24T02:54:07.630Z,0
2017-07-24T02:55:08.406Z,0
2017-07-24T02:56:09.237Z,0
2017-07-24T02:57:10.168Z,0
2017-07-24T02:58:10.894Z,0
2017-07-24T02:59:11.757Z,0
2017-07-24T03:00:12.572Z,0
2017-07-24T03:01:13.367Z,0
2017-07-24T03:02:14.104Z,0
2017-07-24T03:03:14.842Z,0
2017-07-24T03:04:15.588Z,0
2017-07-24T03:05:16.450Z,0
2017-07-24T03:06:17.293Z,0
2017-07-24T03:07:18.022Z,0
2017-07-24T03:08:18.853Z,0
2017-07-24T03:09:19.626Z,0
2017-07-24T03:10:20.324Z,0
2017-07-24T03:11:21.218Z,0
2017-07-24T03:12:22.042Z,0
2017-07-24T03:13:22.777Z,0
2017-07-24T03:14:23.525Z,0
2017-07-24T03:15:24.389Z,0
2017-07-24T03:16:25.124Z,0
2017-07-24T03:17:25.973Z,0
2017-07-24T03:18:26.953Z,0
2017-07-24T03:19:27.694Z,0
2017-07-24T03:20:28.447Z,0
2017-07-24T03:21:29.229Z,0
2017-07-24T03:22:29.998Z,0
2017-07-24T03:23:30.724Z,0
2017-07-24T03:24:31.455Z,0
2017-07-24T03:25:32.189Z,0
2017-07-24T03:26:32.931Z,0
2017-07-24T03:27:33.652Z,0
2017-07-24T03:28:34.452Z,0
2017-07-24T03:29:35.181Z,0
2017-07-24T03:30:35.984Z,0
2017-07-24T03:31:36.728Z,0
2017-07-24T03:32:37.550Z,0
2017-07-24T03:33:38.287Z,0
2017-07-24T03:34:39.588Z,0
2017-07-24T03:35:40.468Z,0
2017-07-24T03:36:41.231Z,0
2017-07-24T03:37:42.029Z,0
2017-07-24T03:38:42.807Z,0
2017-07-24T03:39:43.550Z,0
2017-07-24T03:40:44.342Z,0
2017-07-24T03:41:45.131Z,0
2017-07-24T03:42:45.971Z,0
2017-07-24T03:43:46.724Z,0
2017-07-24T03:44:47.495Z,0
2017-07-24T03:45:48.398Z,0
2017-07-24T03:46:49.226Z,0
2017-07-24T03:47:50.085Z,0
2017-07-24T03:48:51.122Z,0
2017-07-24T03:49:52.226Z,0
2017-07-24T03:50:53.062Z,0
2017-07-24T03:51:53.890Z,0
2017-07-24T03:52:54.966Z,0
2017-07-24T03:53:55.719Z,0
2017-07-24T03:54:56.468Z,0
2017-07-24T03:55:57.293Z,0
2017-07-24T03:56:58.025Z,0
2017-07-24T03:57:58.958Z,0
2017-07-24T03:58:59.731Z,0
2017-07-24T04:00:00.615Z,0
2017-07-24T04:01:01.774Z,5
2017-07-24T04:02:02.854Z,5
2017-07-24T04:03:03.691Z,5
2017-07-24T04:04:04.479Z,5
2017-07-24T04:05:05.224Z,5
2017-07-24T04:06:06.000Z,5
2017-07-24T04:07:06.998Z,5
2017-07-24T04:08:07.787Z,5
2017-07-24T04:09:08.578Z,5
2017-07-24T04:10:09.354Z,5
2017-07-24T04:11:10.161Z,5
2017-07-24T04:12:10.931Z,5
2017-07-24T04:13:11.762Z,5
2017-07-24T04:14:12.535Z,5
2017-07-24T04:15:13.376Z,5
2017-07-24T04:16:14.105Z,5
2017-07-24T04:17:14.892Z,5
2017-07-24T04:18:15.716Z,5
2017-07-24T04:19:16.500Z,5
2017-07-24T04:20:17.251Z,10
2017-07-24T04:21:18.053Z,10
2017-07-24T04:22:18.802Z,10
2017-07-24T04:23:19.574Z,10
2017-07-24T04:24:20.370Z,10
2017-07-24T04:25:21.155Z,10
2017-07-24T04:26:21.933Z,10
2017-07-24T04:27:22.738Z,10
2017-07-24T04:28:23.524Z,10
2017-07-24T04:29:24.279Z,10
2017-07-24T04:30:25.629Z,10
2017-07-24T04:31:26.328Z,15
2017-07-24T04:32:27.094Z,15
2017-07-24T04:33:27.897Z,15
2017-07-24T04:34:28.683Z,15
2017-07-24T04:35:29.464Z,15
2017-07-24T04:36:30.251Z,15
2017-07-24T04:37:31.069Z,15
2017-07-24T04:38:31.851Z,15
2017-07-24T04:39:32.575Z,20
2017-07-24T04:40:33.465Z,20
2017-07-24T04:41:34.271Z,20
2017-07-24T04:42:35.016Z,20
2017-07-24T04:43:35.805Z,20
2017-07-24T04:44:37.380Z,20
2017-07-24T04:45:38.230Z,20
2017-07-24T04:46:38.953Z,20
2017-07-24T04:47:39.890Z,25
2017-07-24T04:48:40.588Z,25
2017-07-24T04:49:41.473Z,25
2017-07-24T04:50:42.356Z,30
2017-07-24T04:51:43.143Z,25
2017-07-24T04:52:43.898Z,20
2017-07-24T04:53:44.643Z,20
2017-07-24T04:54:45.374Z,20
2017-07-24T04:55:46.183Z,20
2017-07-24T04:56:46.911Z,20
2017-07-24T04:57:47.713Z,20
2017-07-24T04:58:48.441Z,20
2017-07-24T04:59:49.249Z,20
2017-07-24T05:00:50.002Z,20
2017-07-24T05:01:51.469Z,20
2017-07-24T05:02:52.289Z,20
2017-07-24T05:03:53.129Z,20
2017-07-24T05:04:53.833Z,20
2017-07-24T05:05:54.661Z,20
2017-07-24T05:06:55.512Z,20
2017-07-24T05:07:56.227Z,20
2017-07-24T05:08:57.020Z,20
2017-07-24T05:09:57.815Z,20
2017-07-24T05:10:58.635Z,20
2017-07-24T05:11:59.323Z,20
2017-07-24T05:13:00.070Z,20
2017-07-24T05:14:00.849Z,20
2017-07-24T05:15:01.657Z,15
2017-07-24T05:16:02.391Z,15
2017-07-24T05:17:03.442Z,15
2017-07-24T05:18:04.331Z,15
2017-07-24T05:19:05.096Z,15
2017-07-24T05:20:05.904Z,15
2017-07-24T05:21:06.668Z,15
2017-07-24T05:22:07.383Z,20
2017-07-24T05:23:08.127Z,20
2017-07-24T05:24:08.972Z,20
2017-07-24T05:25:09.776Z,20
2017-07-24T05:26:10.567Z,20
2017-07-24T05:27:11.363Z,20
2017-07-24T05:28:12.108Z,20
2017-07-24T05:29:12.893Z,20
2017-07-24T05:30:13.744Z,20
2017-07-24T05:31:14.644Z,20
2017-07-24T05:32:15.393Z,20
2017-07-24T05:33:16.163Z,20
2017-07-24T05:34:16.966Z,20
2017-07-24T05:35:17.792Z,20
2017-07-24T05:36:18.594Z,20
2017-07-24T05:37:19.319Z,20
2017-07-24T05:38:20.059Z,20
2017-07-24T05:39:20.872Z,20
2017-07-24T05:40:21.606Z,25
2017-07-24T05:41:22.374Z,25
2017-07-24T05:42:23.102Z,25
2017-07-24T05:43:23.884Z,25
2017-07-24T05:44:24.842Z,30
2017-07-24T05:45:25.657Z,30
2017-07-24T05:46:26.672Z,30
2017-07-24T05:47:28.519Z,30
2017-07-24T05:48:29.234Z,30
2017-07-24T05:49:30.303Z,35
2017-07-24T05:50:31.021Z,35
2017-07-24T05:51:31.813Z,35
2017-07-24T05:52:32.687Z,35
2017-07-24T05:53:33.865Z,35
2017-07-24T05:54:34.614Z,35
2017-07-24T05:55:35.430Z,35
2017-07-24T05:56:36.185Z,35
2017-07-24T05:57:37.498Z,35
2017-07-24T05:58:38.207Z,35
2017-07-24T05:59:38.988Z,35
2017-07-24T06:00:39.864Z,40
2017-07-24T06:01:40.590Z,40
2017-07-24T06:02:41.288Z,40
2017-07-24T06:03:42.084Z,45
2017-07-24T06:04:42.862Z,45
2017-07-24T06:05:43.679Z,45
2017-07-24T06:06:44.419Z,45
2017-07-24T06:07:45.215Z,50
2017-07-24T06:08:46.290Z,50
2017-07-24T06:09:47.108Z,55
2017-07-24T06:10:48.137Z,55
2017-07-24T06:11:48.906Z,55
2017-07-24T06:12:49.672Z,60
2017-07-24T06:13:50.411Z,60
2017-07-24T06:14:51.152Z,60
2017-07-24T06:15:52.042Z,65
2017-07-24T06:16:53.237Z,70
2017-07-24T06:17:54.064Z,75
2017-07-24T06:18:54.864Z,75
2017-07-24T06:19:55.675Z,80
2017-07-24T06:20:56.424Z,80
2017-07-24T06:21:57.251Z,80
2017-07-24T06:22:58.074Z,80
2017-07-24T06:23:59.100Z,80
2017-07-24T06:24:59.892Z,75
2017-07-24T06:26:00.651Z,70
2017-07-24T06:27:01.433Z,70
2017-07-24T06:28:02.208Z,70
2017-07-24T06:29:03.327Z,70
2017-07-24T06:30:04.082Z,70
2017-07-24T06:31:04.941Z,75
2017-07-24T06:32:06.010Z,70
2017-07-24T06:33:06.815Z,70
2017-07-24T06:34:07.621Z,65
2017-07-24T06:35:08.392Z,60
2017-07-24T06:36:09.240Z,60
2017-07-24T06:37:09.963Z,60
2017-07-24T06:38:10.733Z,60
2017-07-24T06:39:11.488Z,60
2017-07-24T06:40:12.259Z,55
2017-07-24T06:41:13.030Z,50
2017-07-24T06:42:13.797Z,45
2017-07-24T06:43:14.503Z,45
2017-07-24T06:44:15.249Z,45
2017-07-24T06:45:16.126Z,45
2017-07-24T06:46:16.972Z,45
2017-07-24T06:47:17.718Z,45
2017-07-24T06:48:18.737Z,50
2017-07-24T06:49:19.495Z,50
2017-07-24T06:50:20.324Z,50
2017-07-24T06:51:21.102Z,55
2017-07-24T06:52:22.124Z,55
2017-07-24T06:53:22.960Z,55
2017-07-24T06:54:23.742Z,60
2017-07-24T06:55:24.602Z,60
2017-07-24T06:56:25.885Z,60
2017-07-24T06:57:27.126Z,60
2017-07-24T06:58:27.891Z,55
2017-07-24T06:59:28.851Z,50
2017-07-24T07:00:30.016Z,45
2017-07-24T07:01:31.072Z,40
2017-07-24T07:02:31.833Z,40
2017-07-24T07:03:32.845Z,40
2017-07-24T07:04:33.711Z,40
2017-07-24T07:05:34.509Z,45
2017-07-24T07:06:35.333Z,40
2017-07-24T07:07:36.096Z,40
2017-07-24T07:08:37.173Z,40
2017-07-24T07:09:38.410Z,45
2017-07-24T07:10:39.240Z,45
2017-07-24T07:11:40.003Z,40
2017-07-24T07:12:40.792Z,40
2017-07-24T07:13:41.593Z,40
2017-07-24T07:14:42.643Z,40
2017-07-24T07:15:43.491Z,40
2017-07-24T07:16:44.740Z,40
2017-07-24T07:17:45.649Z,40
2017-07-24T07:18:46.512Z,40
2017-07-24T07:19:47.471Z,45
2017-07-24T07:20:48.274Z,45
2017-07-24T07:21:49.093Z,45
2017-07-24T07:22:49.946Z,45
2017-07-24T07:23:50.771Z,45
2017-07-24T07:24:51.754Z,45
2017-07-24T07:25:52.631Z,45
2017-07-24T07:26:53.683Z,45
2017-07-24T07:27:54.476Z,45
2017-07-24T07:28:55.304Z,45
2017-07-24T07:29:56.488Z,45
2017-07-24T07:30:57.338Z,50
2017-07-24T07:31:58.250Z,65
2017-07-24T07:32:59.102Z,75
2017-07-24T07:33:59.960Z,80
2017-07-24T07:35:00.999Z,70
2017-07-24T07:36:02.041Z,75
2017-07-24T07:37:02.904Z,105
2017-07-24T07:38:03.757Z,125
2017-07-24T07:39:04.726Z,130
2017-07-24T07:40:05.550Z,130
2017-07-24T07:41:06.405Z,120
2017-07-24T07:42:07.313Z,110
2017-07-24T07:43:08.228Z,100
2017-07-24T07:44:09.090Z,95
2017-07-24T07:45:10.249Z,95
2017-07-24T07:46:11.278Z,95
2017-07-24T07:47:12.076Z,90
2017-07-24T07:48:12.929Z,80
2017-07-24T07:49:13.713Z,70
2017-07-24T07:50:14.477Z,70
2017-07-24T07:51:15.378Z,70
2017-07-24T07:52:16.343Z,70
2017-07-24T07:53:17.229Z,65
2017-07-24T07:54:17.988Z,65
2017-07-24T07:55:19.337Z,70
2017-07-24T07:56:20.186Z,65
2017-07-24T07:57:21.532Z,65
2017-07-24T07:58:22.430Z,60
2017-07-24T07:59:23.452Z,65
2017-07-24T08:00:24.754Z,70
2017-07-24T08:01:25.553Z,70
2017-07-24T08:02:26.360Z,75
2017-07-24T08:03:27.176Z,70
2017-07-24T08:04:28.609Z,70
2017-07-24T08:05:29.447Z,80
2017-07-24T08:06:30.357Z,85
2017-07-24T08:07:31.183Z,105
2017-07-24T08:08:31.926Z,100
2017-07-24T08:09:32.787Z,95
2017-07-24T08:10:33.571Z,90
2017-07-24T08:11:34.415Z,85
2017-07-24T08:12:35.199Z,75
2017-07-24T08:13:36.115Z,80
2017-07-24T08:14:36.949Z,80
2017-07-24T08:15:38.115Z,85
2017-07-24T08:16:38.887Z,85
2017-07-24T08:17:39.686Z,90
2017-07-24T08:18:40.517Z,90
2017-07-24T08:19:41.313Z,75
2017-07-24T08:20:42.364Z,75
2017-07-24T08:21:43.223Z,80
2017-07-24T08:22:44.015Z,70
2017-07-24T08:23:45.082Z,70
2017-07-24T08:24:46.067Z,85
2017-07-24T08:25:47.107Z,85
2017-07-24T08:26:48.203Z,80
2017-07-24T08:27:48.982Z,85
2017-07-24T08:28:50.002Z,80
2017-07-24T08:29:50.807Z,80
2017-07-24T08:30:51.984Z,75
2017-07-24T08:31:52.895Z,70
2017-07-24T08:32:53.784Z,70
2017-07-24T08:33:55.151Z,65
2017-07-24T08:34:55.974Z,65
2017-07-24T08:35:56.809Z,60
2017-07-24T08:36:57.700Z,70
2017-07-24T08:39:14.236Z,65
2017-07-24T08:40:15.284Z,75
2017-07-24T08:41:16.071Z,65
2017-07-24T08:42:17.263Z,60
2017-07-24T08:43:18.050Z,60
2017-07-24T08:44:19.254Z,60
2017-07-24T08:45:20.327Z,60
2017-07-24T08:46:21.175Z,60
2017-07-24T08:47:22.016Z,60
2017-07-24T08:48:22.907Z,60
2017-07-24T08:49:23.916Z,60
2017-07-24T08:50:24.761Z,60
2017-07-24T08:51:25.731Z,60
2017-07-24T08:52:26.597Z,65
2017-07-24T08:53:27.434Z,65
2017-07-24T08:54:28.467Z,65
2017-07-24T08:56:44.776Z,65
2017-07-24T08:57:45.570Z,70
2017-07-24T08:58:46.330Z,70
2017-07-24T08:59:47.303Z,75
2017-07-24T09:00:48.133Z,75
2017-07-24T09:01:49.192Z,70
2017-07-24T09:02:49.885Z,75
2017-07-24T09:03:50.675Z,85
2017-07-24T09:04:52.670Z,90
2017-07-24T09:05:53.436Z,85
2017-07-24T09:06:54.178Z,105
2017-07-24T09:07:54.979Z,165
2017-07-24T09:08:55.782Z,115
2017-07-24T09:09:56.619Z,100
2017-07-24T09:10:57.455Z,130
2017-07-24T09:11:58.331Z,220
2017-07-24T09:12:59.050Z,80
2017-07-24T09:14:00.122Z,75
2017-07-24T09:15:01.186Z,85
2017-07-24T09:16:01.982Z,80
2017-07-24T09:17:02.753Z,80
2017-07-24T09:18:03.586Z,90
2017-07-24T09:19:04.430Z,85
2017-07-24T09:20:05.243Z,85
2017-07-24T09:21:06.135Z,75
2017-07-24T09:22:06.866Z,65
2017-07-24T09:23:07.625Z,60
2017-07-24T09:24:08.492Z,60
2017-07-24T09:25:09.283Z,60
2017-07-24T09:26:10.206Z,60
2017-07-24T09:27:11.001Z,60
2017-07-24T09:28:11.829Z,60
2017-07-24T09:29:12.574Z,60
2017-07-24T09:30:13.441Z,75
2017-07-24T09:31:14.531Z,70
2017-07-24T09:32:15.371Z,65
2017-07-24T09:33:16.162Z,60
2017-07-24T09:34:16.915Z,60
2017-07-24T09:35:18.203Z,60
2017-07-24T09:36:18.970Z,65
2017-07-24T09:37:19.785Z,60
2017-07-24T09:38:20.784Z,60
2017-07-24T09:39:21.647Z,55
2017-07-24T09:40:22.563Z,55
2017-07-24T09:41:23.358Z,60
2017-07-24T09:42:24.228Z,70
2017-07-24T09:43:25.112Z,65
2017-07-24T09:44:25.945Z,60
2017-07-24T09:45:26.709Z,60
2017-07-24T09:46:27.546Z,60
2017-07-24T09:47:28.321Z,65
2017-07-24T09:48:29.112Z,65
2017-07-24T09:49:30.318Z,65
2017-07-24T09:50:31.147Z,70
2017-07-24T09:51:31.922Z,70
2017-07-24T09:52:32.873Z,65
2017-07-24T09:53:33.989Z,60
2017-07-24T09:54:34.817Z,50
2017-07-24T09:55:35.599Z,45
2017-07-24T09:56:36.510Z,45
2017-07-24T09:57:38.046Z,40
2017-07-24T09:58:38.800Z,40
2017-07-24T09:59:39.914Z,40
2017-07-24T10:00:40.844Z,45
2017-07-24T10:01:41.982Z,45
2017-07-24T10:02:43.287Z,45
2017-07-24T10:03:44.375Z,40
2017-07-24T10:04:45.199Z,40
2017-07-24T10:05:46.176Z,35
2017-07-24T10:06:48.337Z,40
2017-07-24T10:07:49.107Z,40
2017-07-24T10:08:51.139Z,45
2017-07-24T10:09:52.052Z,50
2017-07-24T10:10:55.768Z,50
2017-07-24T10:11:55.659Z,45
2017-07-24T10:12:56.587Z,45
2017-07-24T10:13:57.401Z,50
2017-07-24T10:14:58.405Z,50
2017-07-24T10:15:59.531Z,60
2017-07-24T10:17:00.416Z,65
2017-07-24T10:18:01.213Z,65
2017-07-24T10:19:02.020Z,65
2017-07-24T10:20:02.974Z,65
2017-07-24T10:21:04.251Z,55
2017-07-24T10:22:05.150Z,50
2017-07-24T10:23:06.303Z,45
2017-07-24T10:24:07.081Z,35
2017-07-24T10:25:08.003Z,30
2017-07-24T10:26:08.724Z,25
2017-07-24T10:27:10.079Z,25
2017-07-24T10:28:10.923Z,25
2017-07-24T10:29:11.761Z,30
2017-07-24T10:30:12.787Z,25
2017-07-24T10:31:13.665Z,25
2017-07-24T10:32:14.442Z,25
2017-07-24T10:33:15.253Z,30
2017-07-24T10:34:16.077Z,30
2017-07-24T10:35:17.066Z,30
2017-07-24T10:36:17.867Z,30
2017-07-24T10:37:18.756Z,35
2017-07-24T10:38:19.608Z,35
2017-07-24T10:39:20.414Z,35
2017-07-24T10:40:21.241Z,35
2017-07-24T10:41:22.072Z,40
2017-07-24T10:42:22.885Z,40
2017-07-24T10:43:24.301Z,35
2017-07-24T10:44:25.125Z,30
2017-07-24T10:45:26.300Z,30
2017-07-24T10:46:27.353Z,30
2017-07-24T10:47:28.258Z,30
2017-07-24T10:48:29.346Z,30
2017-07-24T10:49:30.212Z,25
2017-07-24T10:50:31.104Z,25
2017-07-24T10:51:31.889Z,25
2017-07-24T10:52:32.957Z,20
2017-07-24T10:53:33.904Z,20
2017-07-24T10:54:34.719Z,20
2017-07-24T10:55:35.520Z,20
2017-07-24T10:56:36.294Z,20
2017-07-24T10:57:37.198Z,15
2017-07-24T10:58:37.972Z,15
2017-07-24T10:59:39.009Z,15
2017-07-24T11:00:39.913Z,15
2017-07-24T11:01:40.797Z,15
2017-07-24T11:02:41.633Z,15
2017-07-24T11:03:42.549Z,15
2017-07-24T11:04:43.283Z,15
2017-07-24T11:05:44.141Z,15
2017-07-24T11:06:44.973Z,15
2017-07-24T11:07:45.745Z,20
2017-07-24T11:08:46.545Z,20
2017-07-24T11:09:47.360Z,20
2017-07-24T11:10:48.237Z,20
2017-07-24T11:11:49.094Z,20
2017-07-24T11:12:49.956Z,25
2017-07-24T11:13:50.812Z,25
2017-07-24T11:14:51.610Z,25
2017-07-24T11:15:53.025Z,25
2017-07-24T11:16:53.792Z,30
2017-07-24T11:17:54.690Z,30
2017-07-24T11:18:55.499Z,30
2017-07-24T11:19:56.343Z,25
2017-07-24T11:20:57.179Z,25
2017-07-24T11:21:58.073Z,20
2017-07-24T11:22:59.227Z,20
2017-07-24T11:24:00.004Z,20
2017-07-24T11:25:00.998Z,20
2017-07-24T11:26:02.095Z,25
2017-07-24T11:27:02.844Z,20
2017-07-24T11:28:03.891Z,20
2017-07-24T11:29:04.749Z,20
2017-07-24T11:30:05.588Z,20
2017-07-24T11:31:06.766Z,20
2017-07-24T11:32:07.796Z,20
2017-07-24T11:33:08.772Z,20
2017-07-24T11:34:09.642Z,20
2017-07-24T11:35:10.469Z,20
2017-07-24T11:36:11.311Z,25
2017-07-24T11:37:12.127Z,25
2017-07-24T11:38:12.960Z,25
2017-07-24T11:39:13.796Z,25
2017-07-24T11:40:14.615Z,30
2017-07-24T11:41:15.544Z,30
2017-07-24T11:42:16.351Z,30
2017-07-24T11:43:17.187Z,35
2017-07-24T11:44:18.125Z,35
2017-07-24T11:45:18.969Z,35
2017-07-24T11:46:19.792Z,35
2017-07-24T11:47:21.190Z,35
2017-07-24T11:48:21.974Z,35
2017-07-24T11:49:22.790Z,30
2017-07-24T11:50:23.668Z,25
2017-07-24T11:51:24.733Z,25
2017-07-24T11:52:25.526Z,25
2017-07-24T11:53:26.292Z,25
2017-07-24T11:54:27.070Z,25
2017-07-24T11:55:27.828Z,25
2017-07-24T11:56:28.649Z,20
2017-07-24T11:57:29.460Z,20
2017-07-24T11:58:30.238Z,20
2017-07-24T11:59:31.083Z,20
2017-07-24T12:00:31.840Z,20
2017-07-24T12:01:32.666Z,20
2017-07-24T12:02:33.656Z,25
2017-07-24T12:03:34.514Z,25
2017-07-24T12:04:35.299Z,25
2017-07-24T12:05:36.094Z,25
2017-07-24T12:06:36.887Z,25
2017-07-24T12:07:37.747Z,25
2017-07-24T12:08:38.801Z,25
2017-07-24T12:09:39.644Z,20
2017-07-24T12:10:40.544Z,20
2017-07-24T12:11:41.305Z,15
2017-07-24T12:12:42.121Z,15
2017-07-24T12:13:43.113Z,15
2017-07-24T12:14:43.949Z,15
2017-07-24T12:15:45.077Z,15
2017-07-24T12:16:45.976Z,15
2017-07-24T12:17:46.742Z,10
2017-07-24T12:18:47.596Z,10
2017-07-24T12:19:48.708Z,10
2017-07-24T12:20:49.817Z,10
2017-07-24T12:21:50.708Z,10
2017-07-24T12:22:51.563Z,10
2017-07-24T12:23:52.477Z,10
2017-07-24T12:24:53.663Z,10
2017-07-24T12:25:54.361Z,10
2017-07-24T12:26:55.146Z,10
2017-07-24T12:27:55.994Z,10
2017-07-24T12:28:56.745Z,10
2017-07-24T12:29:57.633Z,5
2017-07-24T12:30:59.202Z,5
2017-07-24T12:32:00.118Z,5
2017-07-24T12:33:00.898Z,5
2017-07-24T12:34:01.663Z,5
2017-07-24T12:35:02.401Z,5
2017-07-24T12:36:03.410Z,5
2017-07-24T12:37:04.376Z,5
2017-07-24T12:38:05.388Z,5
2017-07-24T12:39:06.258Z,5
2017-07-24T12:40:07.059Z,5
2017-07-24T12:41:08.137Z,5
2017-07-24T12:42:08.969Z,5
2017-07-24T12:43:10.013Z,5
2017-07-24T12:44:10.928Z,5
2017-07-24T12:45:12.339Z,5
2017-07-24T12:46:13.430Z,5
2017-07-24T12:47:14.594Z,5
2017-07-24T12:48:15.394Z,5
2017-07-24T12:49:16.256Z,5
2017-07-24T12:51:32.728Z,5
2017-07-24T12:52:33.562Z,5
2017-07-24T12:53:34.620Z,5
2017-07-24T12:54:36.079Z,5
2017-07-24T12:55:36.983Z,5
2017-07-24T12:56:37.819Z,5
2017-07-24T12:57:38.673Z,5
2017-07-24T12:58:39.423Z,5
2017-07-24T12:59:40.301Z,5
2017-07-24T13:00:41.826Z,5
2017-07-24T13:01:43.170Z,5
2017-07-24T13:02:43.964Z,5
2017-07-24T13:03:44.720Z,5
2017-07-24T13:04:45.458Z,5
2017-07-24T13:05:46.331Z,5
2017-07-24T13:06:47.100Z,5
2017-07-24T13:07:48.195Z,10
2017-07-24T13:08:49.071Z,10
2017-07-24T13:09:50.366Z,10
2017-07-24T13:10:51.360Z,10
2017-07-24T13:11:52.205Z,10
2017-07-24T13:12:53.091Z,10
2017-07-24T13:13:53.871Z,10
2017-07-24T13:14:54.786Z,15
2017-07-24T13:15:55.829Z,15
2017-07-24T13:16:56.577Z,15
2017-07-24T13:17:57.325Z,15
2017-07-24T13:18:58.090Z,15
2017-07-24T13:19:58.918Z,15
2017-07-24T13:21:00.285Z,15
2017-07-24T13:22:01.106Z,15
2017-07-24T13:23:01.851Z,15
2017-07-24T13:24:02.658Z,15
2017-07-24T13:25:03.789Z,15
2017-07-24T13:26:05.039Z,20
2017-07-24T13:27:05.929Z,20
2017-07-24T13:28:06.960Z,20
2017-07-24T13:29:07.799Z,20
2017-07-24T13:30:09.263Z,15
2017-07-24T13:31:10.150Z,15
2017-07-24T13:32:10.995Z,20
2017-07-24T13:33:11.971Z,20
2017-07-24T13:34:12.726Z,20
2017-07-24T13:35:13.613Z,15
2017-07-24T13:36:14.959Z,15
2017-07-24T13:38:31.240Z,15
2017-07-24T13:39:31.996Z,15
2017-07-24T13:40:32.784Z,15
2017-07-24T13:41:33.580Z,15
2017-07-24T13:42:34.570Z,15
2017-07-24T13:43:35.429Z,15
2017-07-24T13:44:36.312Z,15
2017-07-24T13:45:37.227Z,20
2017-07-24T13:46:38.258Z,15
2017-07-24T13:47:39.244Z,15
2017-07-24T13:48:40.151Z,15
2017-07-24T13:49:40.984Z,15
2017-07-24T13:50:41.793Z,15
2017-07-24T13:51:42.880Z,10
2017-07-24T13:52:43.732Z,10
2017-07-24T13:53:44.642Z,10
2017-07-24T13:54:45.464Z,10
2017-07-24T13:55:46.234Z,10
2017-07-24T13:56:47.010Z,10
2017-07-24T13:57:47.856Z,15
2017-07-24T13:58:48.682Z,15
2017-07-24T13:59:49.724Z,15
2017-07-24T14:00:51.204Z,15
2017-07-24T14:01:52.732Z,15
2017-07-24T14:02:53.711Z,15
2017-07-24T14:03:54.444Z,15
2017-07-24T14:04:55.248Z,15
2017-07-24T14:05:56.114Z,15
2017-07-24T14:06:56.983Z,15
2017-07-24T14:07:57.850Z,15
2017-07-24T14:08:58.625Z,15
2017-07-24T14:09:59.665Z,10
2017-07-24T14:11:00.441Z,10
2017-07-24T14:12:01.458Z,10
2017-07-24T14:13:02.303Z,10
2017-07-24T14:14:03.082Z,10
2017-07-24T14:15:04.008Z,10
2017-07-24T14:16:05.201Z,10
2017-07-24T14:17:06.050Z,10
2017-07-24T14:18:06.938Z,10
2017-07-24T14:19:07.676Z,10
2017-07-24T14:20:08.491Z,10
2017-07-24T14:21:09.245Z,10
2017-07-24T14:22:10.044Z,10
2017-07-24T14:23:11.020Z,10
2017-07-24T14:24:11.895Z,10
2017-07-24T14:25:12.808Z,10
2017-07-24T14:26:13.702Z,10
2017-07-24T14:27:14.696Z,15
2017-07-24T14:28:15.605Z,15
2017-07-24T14:29:16.682Z,15
2017-07-24T14:30:18.207Z,20
2017-07-24T14:31:19.097Z,20
2017-07-24T14:32:20.066Z,20
2017-07-24T14:33:21.131Z,20
2017-07-24T14:34:22.046Z,20
2017-07-24T14:35:23.290Z,20
2017-07-24T14:36:24.414Z,20
2017-07-24T14:37:25.312Z,20
2017-07-24T14:38:26.244Z,15
2017-07-24T14:39:26.980Z,15
2017-07-24T14:40:27.936Z,15
2017-07-24T14:41:29.041Z,15
2017-07-24T14:42:30.079Z,15
2017-07-24T14:43:31.018Z,15